createdAt,value
2023-05-13T00:01:38.970Z,13.61
2023-05-13T00:04:06.904Z,13.09
2023-05-13T00:06:33.715Z,13.54
2023-05-13T00:09:00.813Z,13.51
2023-05-13T00:11:27.728Z,13.51
2023-05-13T00:13:54.657Z,13.32
2023-05-13T00:16:24.356Z,13.37
2023-05-13T00:18:51.731Z,13.40
2023-05-13T00:21:18.539Z,13.42
2023-05-13T00:23:45.162Z,12.43
2023-05-13T00:26:11.693Z,13.30
2023-05-13T00:28:38.478Z,12.86
2023-05-13T00:31:05.088Z,13.33
2023-05-13T00:33:31.864Z,13.02
2023-05-13T00:35:58.482Z,13.15
2023-05-13T00:38:25.009Z,13.25
2023-05-13T00:40:51.608Z,12.70
2023-05-13T00:43:18.157Z,13.10
2023-05-13T00:45:44.761Z,13.18
2023-05-13T00:48:11.754Z,13.07
2023-05-13T00:53:12.942Z,13.02
2023-05-13T00:55:44.210Z,12.98
2023-05-13T00:58:11.663Z,12.98
2023-05-13T01:00:47.992Z,12.99
2023-05-13T01:03:27.309Z,12.90
2023-05-13T01:06:07.804Z,12.83
2023-05-13T01:08:58.627Z,12.86
2023-05-13T01:11:30.184Z,12.86
2023-05-13T01:14:06.705Z,12.85
2023-05-13T01:16:40.999Z,12.75
2023-05-13T01:19:26.388Z,12.79
2023-05-13T01:21:53.841Z,12.70
2023-05-13T01:24:20.575Z,12.77
2023-05-13T01:26:47.737Z,12.40
2023-05-13T01:29:14.527Z,12.75
2023-05-13T01:31:42.760Z,12.80
2023-05-13T01:34:11.567Z,12.62
2023-05-13T01:36:40.063Z,12.51
2023-05-13T01:39:08.496Z,12.57
2023-05-13T01:41:35.299Z,12.57
2023-05-13T01:44:04.794Z,12.46
2023-05-13T01:46:31.475Z,12.36
2023-05-13T01:48:59.229Z,12.49
2023-05-13T01:51:25.938Z,12.46
2023-05-13T01:53:52.551Z,11.91
2023-05-13T01:56:19.098Z,12.27
2023-05-13T01:58:46.220Z,12.33
2023-05-13T02:01:12.761Z,11.78
2023-05-13T02:03:39.505Z,12.36
2023-05-13T02:06:06.486Z,12.06
2023-05-13T02:08:33.125Z,12.35
2023-05-13T02:11:00.752Z,12.23
2023-05-13T02:13:27.391Z,12.12
2023-05-13T02:15:54.704Z,12.23
2023-05-13T02:18:22.404Z,12.21
2023-05-13T02:20:49.241Z,12.18
2023-05-13T02:23:16.897Z,11.99
2023-05-13T02:25:44.109Z,12.12
2023-05-13T02:28:11.056Z,11.90
2023-05-13T02:30:37.703Z,11.63
2023-05-13T02:33:04.348Z,11.97
2023-05-13T02:35:31.062Z,11.98
2023-05-13T02:37:58.428Z,11.85
2023-05-13T02:40:25.008Z,12.05
2023-05-13T02:42:51.669Z,11.95
2023-05-13T02:45:18.694Z,11.67
2023-05-13T02:47:45.301Z,11.78
2023-05-13T02:50:12.690Z,11.16
2023-05-13T02:52:40.218Z,11.89
2023-05-13T02:55:07.825Z,11.50
2023-05-13T02:57:34.727Z,11.86
2023-05-13T03:00:01.624Z,11.78
2023-05-13T03:02:28.473Z,10.84
2023-05-13T03:04:55.770Z,11.44
2023-05-13T03:07:22.860Z,11.62
2023-05-13T03:09:49.488Z,11.55
2023-05-13T03:12:16.289Z,11.68
2023-05-13T03:14:44.473Z,11.61
2023-05-13T03:17:11.474Z,11.70
2023-05-13T03:19:39.316Z,11.60
2023-05-13T03:22:06.640Z,11.72
2023-05-13T03:24:33.360Z,11.60
2023-05-13T03:27:00.327Z,11.60
2023-05-13T03:29:26.925Z,11.30
2023-05-13T03:31:54.349Z,11.72
2023-05-13T03:34:21.062Z,11.74
2023-05-13T03:36:47.689Z,11.78
2023-05-13T03:39:14.251Z,11.73
2023-05-13T03:41:41.051Z,11.80
2023-05-13T03:44:07.709Z,11.55
2023-05-13T03:46:34.372Z,11.33
2023-05-13T03:49:01.013Z,11.72
2023-05-13T03:51:27.795Z,11.72
2023-05-13T03:53:54.363Z,11.70
2023-05-13T03:56:21.776Z,11.76
2023-05-13T03:58:48.443Z,11.66
2023-05-13T04:01:15.016Z,11.78
2023-05-13T04:03:44.396Z,11.82
2023-05-13T04:06:11.132Z,11.73
2023-05-13T04:08:37.728Z,11.74
2023-05-13T04:11:04.452Z,11.58
2023-05-13T04:13:31.047Z,11.82
2023-05-13T04:15:58.236Z,11.49
2023-05-13T04:18:24.851Z,11.91
2023-05-13T04:20:51.440Z,11.87
2023-05-13T04:23:18.066Z,11.86
2023-05-13T04:25:50.910Z,12.08
2023-05-13T04:28:18.391Z,11.17
2023-05-13T04:30:45.329Z,12.09
2023-05-13T04:33:12.127Z,12.10
2023-05-13T04:35:39.043Z,11.80
2023-05-13T04:38:05.915Z,12.09
2023-05-13T04:40:32.591Z,11.95
2023-05-13T04:42:59.175Z,12.29
2023-05-13T04:45:25.770Z,12.44
2023-05-13T04:47:52.341Z,12.44
2023-05-13T04:50:19.143Z,12.62
2023-05-13T04:52:47.441Z,12.72
2023-05-13T04:55:14.194Z,12.79
2023-05-13T04:57:40.913Z,12.75
2023-05-13T05:00:09.604Z,12.87
2023-05-13T05:02:36.285Z,12.89
2023-05-13T05:05:03.498Z,13.01
2023-05-13T05:07:30.109Z,13.03
2023-05-13T05:09:56.835Z,13.09
2023-05-13T05:12:23.560Z,13.18
2023-05-13T05:14:50.114Z,13.30
2023-05-13T05:17:16.722Z,13.30
2023-05-13T05:19:43.447Z,13.42
2023-05-13T05:22:10.064Z,13.58
2023-05-13T05:24:36.761Z,13.54
2023-05-13T05:27:03.480Z,13.96
2023-05-13T05:29:30.024Z,14.11
2023-05-13T05:31:56.669Z,14.19
2023-05-13T05:34:23.377Z,14.24
2023-05-13T05:36:50.028Z,14.30
2023-05-13T05:39:16.583Z,14.47
2023-05-13T05:41:43.160Z,14.50
2023-05-13T05:44:09.756Z,14.58
2023-05-13T05:46:36.353Z,14.38
2023-05-13T05:49:03.850Z,14.68
2023-05-13T05:51:30.576Z,14.76
2023-05-13T05:53:57.114Z,14.84
2023-05-13T05:56:23.704Z,14.96
2023-05-13T05:58:50.288Z,14.99
2023-05-13T06:01:16.866Z,14.85
2023-05-13T06:03:43.655Z,14.93
2023-05-13T06:06:10.429Z,15.41
2023-05-13T06:08:37.054Z,15.40
2023-05-13T06:11:03.618Z,15.33
2023-05-13T06:13:30.262Z,15.53
2023-05-13T06:15:57.017Z,15.35
2023-05-13T06:18:23.753Z,15.38
2023-05-13T06:20:50.381Z,15.81
2023-05-13T06:23:17.027Z,15.89
2023-05-13T06:25:43.675Z,16.14
2023-05-13T06:28:11.366Z,16.24
2023-05-13T06:30:38.813Z,16.16
2023-05-13T06:33:05.645Z,16.42
2023-05-13T06:35:32.260Z,16.41
2023-05-13T06:37:58.819Z,16.55
2023-05-13T06:40:25.495Z,15.93
2023-05-13T06:42:52.084Z,16.72
2023-05-13T06:45:26.046Z,16.50
2023-05-13T06:47:53.605Z,17.02
2023-05-13T06:50:20.805Z,17.04
2023-05-13T06:52:47.597Z,17.08
2023-05-13T06:55:14.283Z,17.05
2023-05-13T06:57:43.476Z,16.98
2023-05-13T07:00:10.851Z,17.45
2023-05-13T07:02:37.773Z,17.56
2023-05-13T07:05:05.146Z,17.64
2023-05-13T07:07:31.773Z,17.74
2023-05-13T07:09:58.406Z,17.70
2023-05-13T07:12:25.182Z,17.90
2023-05-13T07:14:52.031Z,18.01
2023-05-13T07:17:18.656Z,18.10
2023-05-13T07:19:45.254Z,18.24
2023-05-13T07:22:12.003Z,18.21
2023-05-13T07:24:38.948Z,18.10
2023-05-13T07:27:06.081Z,18.34
2023-05-13T07:29:33.397Z,18.49
2023-05-13T07:32:05.487Z,18.60
2023-05-13T07:34:32.696Z,18.71
2023-05-13T07:36:59.347Z,18.99
2023-05-13T07:39:26.773Z,18.84
2023-05-13T07:41:53.718Z,19.02
2023-05-13T07:44:20.300Z,19.06
2023-05-13T07:46:46.924Z,19.24
2023-05-13T07:49:13.750Z,19.03
2023-05-13T07:51:40.593Z,19.24
2023-05-13T07:54:07.171Z,19.41
2023-05-13T07:56:33.887Z,19.37
2023-05-13T07:59:00.561Z,19.53
2023-05-13T08:01:27.421Z,19.77
2023-05-13T08:03:54.255Z,19.92
2023-05-13T08:06:21.114Z,20.17
2023-05-13T08:08:47.655Z,19.88
2023-05-13T08:11:14.368Z,20.33
2023-05-13T08:13:40.984Z,20.33
2023-05-13T08:16:07.780Z,20.09
2023-05-13T08:18:34.478Z,20.47
2023-05-13T08:21:01.384Z,20.90
2023-05-13T08:23:40.932Z,20.74
2023-05-13T08:26:11.661Z,20.77
2023-05-13T08:28:38.777Z,20.63
2023-05-13T08:31:05.464Z,21.03
2023-05-13T08:33:32.657Z,20.85
2023-05-13T08:36:01.195Z,21.12
2023-05-13T08:38:27.857Z,21.39
2023-05-13T08:40:54.532Z,21.35
2023-05-13T08:43:24.359Z,21.69
2023-05-13T08:45:53.568Z,21.23
2023-05-13T08:48:20.667Z,21.36
2023-05-13T08:50:48.094Z,21.40
2023-05-13T08:53:17.170Z,21.66
2023-05-13T08:55:43.881Z,21.77
2023-05-13T08:58:10.530Z,21.77
2023-05-13T09:00:37.356Z,21.62
2023-05-13T09:03:04.281Z,21.80
2023-05-13T09:05:32.177Z,21.84
2023-05-13T09:07:59.089Z,21.85
2023-05-13T09:10:25.644Z,21.96
2023-05-13T09:12:56.234Z,21.92
2023-05-13T09:15:25.571Z,22.13
2023-05-13T09:18:01.412Z,22.36
2023-05-13T09:20:28.852Z,22.31
2023-05-13T09:23:04.158Z,22.46
2023-05-13T09:25:31.513Z,22.41
2023-05-13T09:28:00.070Z,22.51
2023-05-13T09:30:31.095Z,22.64
2023-05-13T09:33:12.277Z,22.65
2023-05-13T09:35:41.973Z,22.75
2023-05-13T09:38:31.946Z,22.68
2023-05-13T09:41:00.752Z,22.63
2023-05-13T09:43:32.379Z,21.89
2023-05-13T09:46:05.687Z,23.00
2023-05-13T09:48:34.106Z,22.81
2023-05-13T09:51:01.398Z,22.97
2023-05-13T09:53:28.744Z,22.92
2023-05-13T09:55:57.365Z,23.14
2023-05-13T09:58:25.845Z,23.39
2023-05-13T10:00:52.794Z,23.24
2023-05-13T10:03:19.651Z,23.40
2023-05-13T10:05:50.498Z,23.17
2023-05-13T10:08:18.426Z,23.64
2023-05-13T10:10:47.516Z,23.80
2023-05-13T10:13:16.828Z,23.57
2023-05-13T10:15:55.425Z,23.83
2023-05-13T10:18:24.174Z,23.91
2023-05-13T10:20:53.927Z,23.92
2023-05-13T10:23:21.823Z,23.74
2023-05-13T10:25:49.039Z,24.12
2023-05-13T10:28:16.853Z,24.39
2023-05-13T10:30:44.255Z,24.47
2023-05-13T10:33:11.123Z,24.27
2023-05-13T10:35:42.693Z,24.37
2023-05-13T10:38:16.523Z,24.25
2023-05-13T10:41:09.686Z,24.50
2023-05-13T10:43:37.539Z,24.90
2023-05-13T10:46:11.520Z,25.10
2023-05-13T10:48:51.042Z,25.52
2023-05-13T10:51:24.132Z,26.38
2023-05-13T10:53:53.292Z,27.35
2023-05-13T10:56:22.187Z,28.73
2023-05-13T10:59:01.541Z,30.57
2023-05-13T11:01:35.772Z,33.01
2023-05-13T11:04:05.301Z,34.04
2023-05-13T11:06:37.475Z,33.28
2023-05-13T11:09:15.132Z,32.56
2023-05-13T11:11:42.484Z,33.15
2023-05-13T11:14:16.307Z,32.89
2023-05-13T11:16:47.993Z,32.97
2023-05-13T11:19:23.781Z,31.39
2023-05-13T11:21:53.211Z,31.85
2023-05-13T11:24:21.821Z,31.33
2023-05-13T11:26:54.389Z,31.32
2023-05-13T11:29:29.997Z,30.06
2023-05-13T11:32:00.513Z,29.10
2023-05-13T11:34:28.362Z,28.34
2023-05-13T11:37:03.775Z,29.32
2023-05-13T11:39:30.818Z,29.76
2023-05-13T11:41:57.725Z,30.74
2023-05-13T11:44:25.672Z,30.38
2023-05-13T11:46:57.447Z,29.50
2023-05-13T11:49:44.312Z,28.37
2023-05-13T11:52:15.431Z,28.22
2023-05-13T11:54:47.676Z,27.12
2023-05-13T11:57:24.164Z,27.18
2023-05-13T11:59:55.868Z,26.79
2023-05-13T12:02:30.786Z,26.37
2023-05-13T12:05:04.551Z,25.93
2023-05-13T12:07:32.052Z,25.98
2023-05-13T12:10:00.766Z,25.72
2023-05-13T12:12:29.313Z,26.22
2023-05-13T12:14:59.792Z,26.30
2023-05-13T12:17:26.743Z,26.45
2023-05-13T12:20:08.829Z,28.01
2023-05-13T12:22:36.568Z,30.21
2023-05-13T12:25:35.169Z,32.75
2023-05-13T12:28:14.289Z,34.30
2023-05-13T12:30:52.692Z,34.98
2023-05-13T12:33:27.198Z,34.26
2023-05-13T12:36:14.770Z,34.60
2023-05-13T12:39:00.050Z,37.15
2023-05-13T12:41:51.984Z,40.18
2023-05-13T12:44:18.797Z,43.26
2023-05-13T12:46:57.378Z,43.73
2023-05-13T12:49:24.272Z,41.83
2023-05-13T12:51:52.269Z,38.98
2023-05-13T12:54:19.178Z,34.78
2023-05-13T12:56:46.061Z,33.08
2023-05-13T12:59:14.696Z,31.83
2023-05-13T13:01:42.990Z,34.61
2023-05-13T13:04:09.889Z,38.60
2023-05-13T13:06:36.666Z,41.27
2023-05-13T13:09:03.447Z,43.79
2023-05-13T13:11:30.146Z,45.37
2023-05-13T13:13:56.735Z,47.03
2023-05-13T13:16:23.654Z,46.18
2023-05-13T13:18:53.442Z,47.39
2023-05-13T13:21:22.237Z,47.21
2023-05-13T13:23:48.851Z,47.34
2023-05-13T13:26:15.406Z,47.79
2023-05-13T13:28:44.352Z,47.30
2023-05-13T13:31:12.214Z,47.83
2023-05-13T13:33:39.063Z,48.73
2023-05-13T13:36:06.096Z,48.14
2023-05-13T13:38:32.829Z,48.33
2023-05-13T13:40:59.410Z,49.47
2023-05-13T13:43:25.977Z,49.58
2023-05-13T13:45:52.727Z,48.82
2023-05-13T13:48:19.427Z,46.08
2023-05-13T13:50:47.761Z,44.98
2023-05-13T13:55:48.737Z,40.05
2023-05-13T13:58:15.922Z,43.63
2023-05-13T14:00:42.576Z,44.36
2023-05-13T14:03:09.369Z,46.30
2023-05-13T14:05:36.092Z,45.54
2023-05-13T14:08:02.757Z,44.81
2023-05-13T14:10:29.499Z,46.85
2023-05-13T14:12:56.143Z,48.20
2023-05-13T14:15:24.422Z,48.57
2023-05-13T14:17:51.056Z,48.79
2023-05-13T14:20:17.769Z,47.64
2023-05-13T14:22:44.400Z,46.44
2023-05-13T14:25:11.037Z,48.24
2023-05-13T14:27:37.642Z,47.97
2023-05-13T14:30:05.539Z,48.82
2023-05-13T14:32:32.945Z,48.26
2023-05-13T14:34:59.607Z,47.97
2023-05-13T14:37:26.351Z,48.11
2023-05-13T14:39:53.029Z,49.38
2023-05-13T14:42:19.629Z,48.33
2023-05-13T14:44:46.301Z,47.15
2023-05-13T14:47:13.100Z,46.92
2023-05-13T14:49:39.636Z,47.82
2023-05-13T14:52:06.341Z,47.58
2023-05-13T14:54:35.839Z,47.01
2023-05-13T14:57:07.058Z,44.33
2023-05-13T14:59:34.106Z,41.50
2023-05-13T15:02:02.703Z,41.38
2023-05-13T15:04:29.475Z,43.36
2023-05-13T15:06:56.847Z,44.78
2023-05-13T15:09:23.877Z,45.93
2023-05-13T15:11:50.728Z,45.77
2023-05-13T15:14:18.817Z,46.37
2023-05-13T15:16:51.160Z,46.85
2023-05-13T15:19:18.815Z,47.31
2023-05-13T15:21:45.849Z,45.03
2023-05-13T15:24:15.402Z,47.45
2023-05-13T15:26:43.329Z,47.92
2023-05-13T15:29:09.969Z,45.19
2023-05-13T15:31:36.554Z,46.73
2023-05-13T15:34:03.410Z,45.66
2023-05-13T15:36:29.961Z,44.12
2023-05-13T15:38:56.567Z,42.03
2023-05-13T15:41:23.111Z,42.64
2023-05-13T15:43:49.733Z,42.40
2023-05-13T15:46:16.652Z,44.13
2023-05-13T15:48:43.365Z,44.05
2023-05-13T15:51:09.934Z,42.84
2023-05-13T15:53:36.510Z,42.93
2023-05-13T15:56:03.161Z,42.20
2023-05-13T15:58:29.797Z,43.16
2023-05-13T16:00:56.372Z,42.46
2023-05-13T16:03:22.995Z,43.08
2023-05-13T16:05:49.706Z,42.33
2023-05-13T16:08:16.494Z,42.12
2023-05-13T16:10:43.271Z,42.58
2023-05-13T16:13:09.870Z,42.36
2023-05-13T16:15:36.551Z,42.88
2023-05-13T16:18:03.742Z,40.21
2023-05-13T16:20:30.443Z,40.95
2023-05-13T16:22:57.037Z,40.07
2023-05-13T16:25:24.861Z,38.85
2023-05-13T16:27:51.901Z,37.36
2023-05-13T16:30:18.496Z,35.76
2023-05-13T16:32:47.792Z,33.52
2023-05-13T16:35:14.684Z,32.32
2023-05-13T16:37:41.400Z,32.20
2023-05-13T16:40:08.720Z,31.41
2023-05-13T16:42:35.289Z,30.73
2023-05-13T16:45:01.969Z,30.09
2023-05-13T16:47:28.836Z,29.69
2023-05-13T16:49:56.389Z,29.26
2023-05-13T16:52:24.050Z,28.91
2023-05-13T16:54:50.854Z,28.26
2023-05-13T16:57:19.374Z,28.35
2023-05-13T16:59:46.038Z,27.65
2023-05-13T17:02:12.803Z,27.55
2023-05-13T17:04:39.434Z,27.23
2023-05-13T17:07:06.890Z,27.18
2023-05-13T17:09:33.906Z,26.70
2023-05-13T17:12:00.575Z,26.50
2023-05-13T17:14:27.367Z,26.05
2023-05-13T17:16:54.084Z,26.40
2023-05-13T17:19:20.914Z,25.43
2023-05-13T17:21:47.580Z,25.29
2023-05-13T17:24:14.133Z,25.59
2023-05-13T17:26:41.195Z,25.69
2023-05-13T17:29:07.933Z,25.63
2023-05-13T17:31:34.513Z,25.67
2023-05-13T17:34:01.133Z,25.38
2023-05-13T17:36:27.849Z,25.21
2023-05-13T17:38:54.465Z,25.24
2023-05-13T17:41:21.916Z,25.07
2023-05-13T17:43:48.591Z,24.56
2023-05-13T17:46:15.308Z,24.84
2023-05-13T17:48:42.516Z,24.68
2023-05-13T17:51:09.379Z,24.16
2023-05-13T17:53:35.978Z,24.40
2023-05-13T17:56:02.678Z,22.79
2023-05-13T17:58:29.310Z,24.09
2023-05-13T18:00:56.078Z,24.13
2023-05-13T18:03:22.769Z,23.94
2023-05-13T18:05:49.532Z,23.82
2023-05-13T18:08:16.264Z,23.68
2023-05-13T18:10:43.654Z,23.35
2023-05-13T18:13:11.150Z,23.42
2023-05-13T18:15:37.922Z,23.32
2023-05-13T18:18:04.732Z,23.15
2023-05-13T18:20:32.996Z,22.99
2023-05-13T18:23:00.045Z,23.06
2023-05-13T18:25:26.732Z,22.98
2023-05-13T18:27:54.447Z,22.73
2023-05-13T18:30:21.385Z,22.63
2023-05-13T18:32:48.365Z,22.37
2023-05-13T18:35:16.202Z,22.25
2023-05-13T18:37:42.886Z,22.23
2023-05-13T18:40:10.004Z,21.71
2023-05-13T18:42:36.777Z,21.90
2023-05-13T18:45:03.582Z,21.41
2023-05-13T18:47:30.145Z,21.68
2023-05-13T18:49:56.711Z,21.27
2023-05-13T18:52:23.318Z,21.53
2023-05-13T18:54:49.905Z,21.47
2023-05-13T18:57:16.941Z,20.91
2023-05-13T18:59:43.619Z,20.99
2023-05-13T19:02:10.515Z,20.97
2023-05-13T19:04:37.177Z,20.85
2023-05-13T19:07:03.754Z,20.86
2023-05-13T19:09:30.521Z,20.73
2023-05-13T19:11:57.193Z,20.36
2023-05-13T19:14:23.760Z,20.43
2023-05-13T19:16:50.407Z,20.03
2023-05-13T19:19:17.176Z,20.12
2023-05-13T19:21:43.810Z,20.21
2023-05-13T19:24:10.437Z,20.08
2023-05-13T19:26:37.166Z,20.04
2023-05-13T19:29:03.886Z,19.83
2023-05-13T19:31:31.607Z,19.78
2023-05-13T19:33:58.471Z,19.59
2023-05-13T19:36:26.525Z,19.66
2023-05-13T19:38:53.756Z,19.38
2023-05-13T19:41:20.476Z,19.21
2023-05-13T19:43:47.125Z,19.39
2023-05-13T19:46:13.791Z,19.25
2023-05-13T19:48:40.620Z,19.25
2023-05-13T19:51:07.306Z,19.25
2023-05-13T19:53:33.949Z,19.15
2023-05-13T19:56:01.361Z,18.91
2023-05-13T19:58:28.568Z,18.87
2023-05-13T20:00:56.073Z,18.93
2023-05-13T20:03:22.949Z,18.52
2023-05-13T20:05:50.769Z,18.77
2023-05-13T20:08:17.482Z,18.75
2023-05-13T20:10:44.170Z,18.64
2023-05-13T20:13:10.930Z,18.15
2023-05-13T20:15:37.657Z,18.45
2023-05-13T20:18:04.371Z,18.33
2023-05-13T20:20:31.006Z,18.27
2023-05-13T20:22:57.553Z,18.14
2023-05-13T20:25:24.184Z,18.13
2023-05-13T20:27:50.821Z,18.13
2023-05-13T20:30:17.564Z,18.05
2023-05-13T20:32:44.272Z,17.75
2023-05-13T20:35:10.929Z,17.67
2023-05-13T20:37:37.523Z,17.76
2023-05-13T20:40:04.729Z,17.59
2023-05-13T20:42:32.089Z,17.58
2023-05-13T20:44:58.652Z,17.36
2023-05-13T20:47:25.273Z,17.43
2023-05-13T20:49:51.860Z,16.80
2023-05-13T20:52:18.446Z,17.18
2023-05-13T20:54:45.038Z,17.04
2023-05-13T20:57:11.649Z,16.95
2023-05-13T20:59:38.266Z,17.12
2023-05-13T21:02:05.072Z,17.00
2023-05-13T21:04:31.736Z,17.17
2023-05-13T21:06:58.418Z,17.09
2023-05-13T21:09:25.127Z,16.89
2023-05-13T21:11:51.693Z,16.98
2023-05-13T21:14:18.336Z,16.76
2023-05-13T21:16:44.944Z,16.22
2023-05-13T21:19:22.888Z,16.65
2023-05-13T21:21:50.216Z,16.62
2023-05-13T21:24:18.403Z,16.67
2023-05-13T21:26:45.803Z,16.68
2023-05-13T21:29:12.518Z,16.47
2023-05-13T21:31:39.323Z,16.15
2023-05-13T21:34:06.029Z,16.44
2023-05-13T21:36:33.979Z,16.31
2023-05-13T21:39:00.702Z,16.19
2023-05-13T21:41:27.493Z,16.22
2023-05-13T21:43:54.253Z,16.29
2023-05-13T21:46:20.933Z,16.12
2023-05-13T21:48:48.233Z,16.03
2023-05-13T21:51:14.965Z,16.15
2023-05-13T21:53:41.552Z,16.32
2023-05-13T21:56:08.175Z,16.27
2023-05-13T21:58:34.901Z,16.26
2023-05-13T22:01:01.960Z,16.25
2023-05-13T22:03:28.648Z,15.90
2023-05-13T22:08:47.483Z,15.99
2023-05-13T22:11:14.899Z,16.02
2023-05-13T22:13:41.493Z,15.90
2023-05-13T22:16:08.449Z,15.82
2023-05-13T22:18:35.369Z,15.62
2023-05-13T22:21:02.152Z,15.76
2023-05-13T22:23:28.681Z,15.65
2023-05-13T22:25:55.224Z,15.30
2023-05-13T22:28:21.814Z,15.61
2023-05-13T22:30:51.715Z,15.58
2023-05-13T22:33:19.787Z,15.66
2023-05-13T22:35:47.786Z,15.55
2023-05-13T22:38:14.645Z,15.61
2023-05-13T22:40:50.717Z,15.49
2023-05-13T22:43:18.004Z,15.51
2023-05-13T22:45:51.799Z,15.30
2023-05-13T22:48:18.594Z,14.90
2023-05-13T22:50:48.069Z,15.33
2023-05-13T22:53:20.273Z,15.24
2023-05-13T22:55:47.234Z,15.15
2023-05-13T22:58:17.452Z,14.88
2023-05-13T23:00:51.192Z,14.88
2023-05-13T23:03:21.300Z,14.77
2023-05-13T23:05:47.890Z,14.82
2023-05-13T23:08:14.648Z,14.71
2023-05-13T23:10:41.291Z,14.81
2023-05-13T23:13:07.920Z,14.56
2023-05-13T23:15:37.139Z,14.80
2023-05-13T23:18:03.859Z,14.72
2023-05-13T23:20:30.673Z,14.72
2023-05-13T23:22:57.280Z,14.98
2023-05-13T23:25:23.860Z,14.94
2023-05-13T23:27:51.462Z,14.94
2023-05-13T23:30:18.284Z,14.90
2023-05-13T23:32:45.090Z,14.61
2023-05-13T23:35:12.691Z,14.83
2023-05-13T23:37:39.279Z,14.88
2023-05-13T23:40:06.814Z,14.86
2023-05-13T23:42:33.429Z,14.72
2023-05-13T23:44:59.972Z,14.25
2023-05-13T23:47:26.546Z,14.33
2023-05-13T23:49:53.130Z,14.57
2023-05-13T23:52:19.740Z,14.58
2023-05-13T23:54:46.370Z,14.67
2023-05-13T23:57:12.926Z,14.58
2023-05-13T23:59:39.525Z,14.64
